createdAt,value
2018-11-10T00:00:07.078Z,20.55
2018-11-10T00:02:38.717Z,19.05
2018-11-10T00:05:10.537Z,19.37
2018-11-10T00:07:42.329Z,18.32
2018-11-10T00:10:14.660Z,19.07
2018-11-10T00:12:46.739Z,16.80
2018-11-10T00:15:18.861Z,17.75
2018-11-10T00:17:51.040Z,18.35
2018-11-10T00:20:22.217Z,19.30
2018-11-10T00:22:54.697Z,17.70
2018-11-10T00:25:26.318Z,16.62
2018-11-10T00:27:58.639Z,15.93
2018-11-10T00:30:29.818Z,14.28
2018-11-10T00:33:01.458Z,16.40
2018-11-10T00:35:32.937Z,13.80
2018-11-10T00:38:04.237Z,13.08
2018-11-10T00:40:35.657Z,14.65
2018-11-10T00:43:08.197Z,14.47
2018-11-10T00:45:39.777Z,15.60
2018-11-10T00:48:12.037Z,14.65
2018-11-10T00:50:44.557Z,16.17
2018-11-10T00:53:16.323Z,16.35
2018-11-10T00:55:47.917Z,18.73
2018-11-10T00:58:20.637Z,16.02
2018-11-10T01:00:52.678Z,16.95
2018-11-10T01:03:25.477Z,19.25
2018-11-10T01:05:57.657Z,18.40
2018-11-10T01:08:30.097Z,19.52
2018-11-10T01:11:01.417Z,16.27
2018-11-10T01:13:32.720Z,16.42
2018-11-10T01:16:04.300Z,18.80
2018-11-10T01:18:36.579Z,17.70
2018-11-10T01:21:08.838Z,16.48
2018-11-10T01:23:40.957Z,17.23
2018-11-10T01:26:13.218Z,17.55
2018-11-10T01:28:45.437Z,19.12
2018-11-10T01:31:18.339Z,17.80
2018-11-10T01:33:50.497Z,18.95
2018-11-10T01:36:22.637Z,17.75
2018-11-10T01:38:54.077Z,13.20
2018-11-10T01:41:25.337Z,13.00
2018-11-10T01:43:57.757Z,11.63
2018-11-10T01:46:29.977Z,13.85
2018-11-10T01:49:02.858Z,18.32
2018-11-10T01:51:34.837Z,18.10
2018-11-10T01:54:06.557Z,12.13
2018-11-10T01:56:38.258Z,12.35
2018-11-10T01:59:09.477Z,11.73
2018-11-10T02:01:41.618Z,12.93
2018-11-10T02:04:13.377Z,12.40
2018-11-10T02:06:46.299Z,11.60
2018-11-10T02:09:17.257Z,13.40
2018-11-10T02:11:49.877Z,15.23
2018-11-10T02:14:21.277Z,11.63
2018-11-10T02:16:53.238Z,16.20
2018-11-10T02:19:24.318Z,10.70
2018-11-10T02:21:56.778Z,11.50
2018-11-10T02:24:29.158Z,9.98
2018-11-10T02:27:00.857Z,9.88
2018-11-10T02:29:33.318Z,9.28
2018-11-10T02:32:04.818Z,9.40
2018-11-10T02:34:36.918Z,10.00
2018-11-10T02:37:08.319Z,10.90
2018-11-10T02:39:40.617Z,12.00
2018-11-10T02:42:11.859Z,10.98
2018-11-10T02:44:44.421Z,9.70
2018-11-10T02:47:16.739Z,9.75
2018-11-10T02:49:48.477Z,9.23
2018-11-10T02:52:20.097Z,9.93
2018-11-10T02:54:51.800Z,10.88
2018-11-10T02:57:23.437Z,17.45
2018-11-10T02:59:55.018Z,18.57
2018-11-10T03:02:26.818Z,11.10
2018-11-10T03:04:58.678Z,11.50
2018-11-10T03:07:30.778Z,14.58
2018-11-10T03:10:02.598Z,13.43
2018-11-10T03:12:34.117Z,13.13
2018-11-10T03:15:06.638Z,9.60
2018-11-10T03:17:38.404Z,10.25
2018-11-10T03:20:13.898Z,10.40
2018-11-10T03:22:46.239Z,10.70
2018-11-10T03:25:17.937Z,9.60
2018-11-10T03:27:49.399Z,10.53
2018-11-10T03:30:21.618Z,10.55
2018-11-10T03:32:53.598Z,8.03
2018-11-10T03:35:25.838Z,9.40
2018-11-10T03:37:57.738Z,9.73
2018-11-10T03:40:29.618Z,10.98
2018-11-10T03:43:02.219Z,12.15
2018-11-10T03:45:33.477Z,9.73
2018-11-10T03:48:05.800Z,10.38
2018-11-10T03:50:37.859Z,12.70
2018-11-10T03:53:10.377Z,15.90
2018-11-10T03:55:41.780Z,16.05
2018-11-10T03:58:14.166Z,17.98
2018-11-10T04:00:45.603Z,17.45
2018-11-10T04:03:17.717Z,15.55
2018-11-10T04:05:49.378Z,12.30
2018-11-10T04:08:21.898Z,11.83
2018-11-10T04:10:53.438Z,11.40
2018-11-10T04:13:25.317Z,9.15
2018-11-10T04:15:57.717Z,10.48
2018-11-10T04:18:29.700Z,12.93
2018-11-10T04:21:01.878Z,12.43
2018-11-10T04:23:34.438Z,12.18
2018-11-10T04:26:06.101Z,11.20
2018-11-10T04:28:37.537Z,9.83
2018-11-10T04:31:09.378Z,11.12
2018-11-10T04:33:41.418Z,10.78
2018-11-10T04:36:13.321Z,11.85
2018-11-10T04:38:45.039Z,9.30
2018-11-10T04:41:16.937Z,9.15
2018-11-10T04:43:49.938Z,9.50
2018-11-10T04:46:21.737Z,8.40
2018-11-10T04:48:55.038Z,9.45
2018-11-10T04:51:27.157Z,12.93
2018-11-10T04:53:58.680Z,9.60
2018-11-10T04:56:30.243Z,8.80
2018-11-10T04:59:02.144Z,9.33
2018-11-10T05:01:34.228Z,8.90
2018-11-10T05:04:05.784Z,10.70
2018-11-10T05:06:37.103Z,10.63
2018-11-10T05:09:10.945Z,10.60
2018-11-10T05:11:42.863Z,9.28
2018-11-10T05:14:14.683Z,9.35
2018-11-10T05:16:46.844Z,11.55
2018-11-10T05:19:19.364Z,12.10
2018-11-10T05:21:51.164Z,10.40
2018-11-10T05:24:23.404Z,12.63
2018-11-10T05:26:54.700Z,18.60
2018-11-10T05:29:27.721Z,43.15
2018-11-10T05:31:59.720Z,21.45
2018-11-10T05:34:31.960Z,20.97
2018-11-10T05:37:03.401Z,20.80
2018-11-10T05:39:35.181Z,21.62
2018-11-10T05:42:07.960Z,19.95
2018-11-10T05:44:39.820Z,19.05
2018-11-10T05:47:12.140Z,18.37
2018-11-10T05:49:44.412Z,23.60
2018-11-10T05:52:16.220Z,21.65
2018-11-10T05:54:48.543Z,21.52
2018-11-10T05:57:20.789Z,20.75
2018-11-10T05:59:52.401Z,18.10
2018-11-10T06:02:24.001Z,16.10
2018-11-10T06:04:56.282Z,17.17
2018-11-10T06:07:28.221Z,18.07
2018-11-10T06:10:00.402Z,17.73
2018-11-10T06:12:32.221Z,17.77
2018-11-10T06:15:04.140Z,16.87
2018-11-10T06:17:36.680Z,17.00
2018-11-10T06:20:09.741Z,17.98
2018-11-10T06:22:41.581Z,22.40
2018-11-10T06:25:13.761Z,20.77
2018-11-10T06:27:45.360Z,22.10
2018-11-10T06:30:17.440Z,22.60
2018-11-10T06:32:50.080Z,20.72
2018-11-10T06:35:21.920Z,22.87
2018-11-10T06:37:53.764Z,20.72
2018-11-10T06:40:25.520Z,21.97
2018-11-10T06:42:57.261Z,22.50
2018-11-10T06:45:28.901Z,22.25
2018-11-10T06:48:00.260Z,19.55
2018-11-10T06:50:31.643Z,21.02
2018-11-10T06:53:03.388Z,21.02
2018-11-10T06:55:36.301Z,20.00
2018-11-10T06:58:07.900Z,20.17
2018-11-10T07:00:38.723Z,19.25
2018-11-10T07:03:10.866Z,20.15
2018-11-10T07:05:42.400Z,19.90
2018-11-10T07:08:14.320Z,19.17
2018-11-10T07:10:46.841Z,19.75
2018-11-10T07:13:18.241Z,12.58
2018-11-10T07:15:50.637Z,15.08
2018-11-10T07:18:23.281Z,10.93
2018-11-10T07:20:54.841Z,13.70
2018-11-10T07:23:27.240Z,13.38
2018-11-10T07:25:58.960Z,14.10
2018-11-10T07:28:31.361Z,11.38
2018-11-10T07:31:02.541Z,15.55
2018-11-10T07:33:35.281Z,13.05
2018-11-10T07:36:08.069Z,15.03
2018-11-10T07:38:40.103Z,14.18
2018-11-10T07:41:12.025Z,15.50
2018-11-10T07:43:43.400Z,14.90
2018-11-10T07:46:15.801Z,14.18
2018-11-10T07:48:48.141Z,17.90
2018-11-10T07:51:20.725Z,16.42
2018-11-10T07:53:52.600Z,19.67
2018-11-10T07:56:24.941Z,19.20
2018-11-10T07:58:57.961Z,19.82
2018-11-10T08:01:29.880Z,19.70
2018-11-10T08:04:02.610Z,20.30
2018-11-10T08:06:34.901Z,19.45
2018-11-10T08:09:08.520Z,19.98
2018-11-10T08:11:40.641Z,17.85
2018-11-10T08:14:12.541Z,19.27
2018-11-10T08:16:43.260Z,17.95
2018-11-10T08:19:16.433Z,20.23
2018-11-10T08:21:48.821Z,18.73
2018-11-10T08:24:20.620Z,20.10
2018-11-10T08:26:52.701Z,19.50
2018-11-10T08:29:24.261Z,18.02
2018-11-10T08:31:55.922Z,17.42
2018-11-10T08:34:28.161Z,15.25
2018-11-10T08:37:00.444Z,17.25
2018-11-10T08:39:32.659Z,17.70
2018-11-10T08:42:03.798Z,18.50
2018-11-10T08:44:35.491Z,18.00
2018-11-10T08:47:07.932Z,18.73
2018-11-10T08:49:39.832Z,19.65
2018-11-10T08:52:11.370Z,19.52
2018-11-10T08:54:43.285Z,20.45
2018-11-10T08:57:15.137Z,18.17
2018-11-10T08:59:46.501Z,19.25
2018-11-10T09:02:18.274Z,18.25
2018-11-10T09:04:50.375Z,19.75
2018-11-10T09:07:22.146Z,20.10
2018-11-10T09:09:53.884Z,19.67
2018-11-10T09:12:25.630Z,21.12
2018-11-10T09:14:57.900Z,17.35
2018-11-10T09:17:29.948Z,19.12
2018-11-10T09:20:02.521Z,18.52
2018-11-10T09:22:34.416Z,19.75
2018-11-10T09:25:08.283Z,20.72
2018-11-10T09:27:40.736Z,18.75
2018-11-10T09:30:14.475Z,18.90
2018-11-10T09:32:45.582Z,19.27
2018-11-10T09:35:17.549Z,23.38
2018-11-10T09:37:48.976Z,18.42
2018-11-10T09:40:21.314Z,19.27
2018-11-10T09:42:53.163Z,19.73
2018-11-10T09:45:25.945Z,21.12
2018-11-10T09:47:57.413Z,20.17
2018-11-10T09:50:29.319Z,21.37
2018-11-10T09:53:01.080Z,18.12
2018-11-10T09:55:33.181Z,19.12
2018-11-10T09:58:05.608Z,18.92
2018-11-10T10:00:37.744Z,18.92
2018-11-10T10:03:09.781Z,18.05
2018-11-10T10:05:41.743Z,15.95
2018-11-10T10:08:13.575Z,14.40
2018-11-10T10:10:45.570Z,16.70
2018-11-10T10:13:17.731Z,17.40
2018-11-10T10:15:49.660Z,19.10
2018-11-10T10:18:21.806Z,18.20
2018-11-10T10:20:54.095Z,19.90
2018-11-10T10:23:25.889Z,18.40
2018-11-10T10:25:58.207Z,17.75
2018-11-10T10:28:30.189Z,18.80
2018-11-10T10:31:02.228Z,18.62
2018-11-10T10:33:33.908Z,17.42
2018-11-10T10:36:05.729Z,19.20
2018-11-10T10:38:37.554Z,19.92
2018-11-10T10:41:09.655Z,19.52
2018-11-10T10:43:42.186Z,17.92
2018-11-10T10:46:15.263Z,16.87
2018-11-10T10:48:46.462Z,16.12
2018-11-10T10:51:18.892Z,15.98
2018-11-10T10:53:50.214Z,15.28
2018-11-10T10:56:23.069Z,14.55
2018-11-10T10:58:54.870Z,14.10
2018-11-10T11:01:30.209Z,14.00
2018-11-10T11:04:01.594Z,13.40
2018-11-10T11:06:33.055Z,14.63
2018-11-10T11:09:05.524Z,16.10
2018-11-10T11:11:38.108Z,15.18
2018-11-10T11:14:09.590Z,18.32
2018-11-10T11:16:41.958Z,15.78
2018-11-10T11:19:12.591Z,16.50
2018-11-10T11:21:44.280Z,18.30
2018-11-10T11:24:16.157Z,18.48
2018-11-10T11:26:48.896Z,18.75
2018-11-10T11:29:20.532Z,18.45
2018-11-10T11:31:51.367Z,18.65
2018-11-10T11:34:23.078Z,18.50
2018-11-10T11:36:55.041Z,15.30
2018-11-10T11:39:26.706Z,18.15
2018-11-10T11:41:59.295Z,13.95
2018-11-10T11:44:30.595Z,17.25
2018-11-10T11:47:02.609Z,17.77
2018-11-10T11:49:34.542Z,14.35
2018-11-10T11:52:06.925Z,15.65
2018-11-10T11:54:39.392Z,13.35
2018-11-10T11:57:12.311Z,13.48
2018-11-10T11:59:43.846Z,14.18
2018-11-10T12:02:15.973Z,14.73
2018-11-10T12:04:48.074Z,13.93
2018-11-10T12:07:21.314Z,12.75
2018-11-10T12:09:54.654Z,14.35
2018-11-10T12:12:26.073Z,14.03
2018-11-10T12:14:58.873Z,13.93
2018-11-10T12:17:31.159Z,13.70
2018-11-10T12:20:02.721Z,13.20
2018-11-10T12:22:35.295Z,14.55
2018-11-10T12:25:07.153Z,16.62
2018-11-10T12:27:39.196Z,15.45
2018-11-10T12:30:13.513Z,13.95
2018-11-10T12:32:45.333Z,15.25
2018-11-10T12:35:17.514Z,13.43
2018-11-10T12:37:49.960Z,13.30
2018-11-10T12:40:22.756Z,16.50
2018-11-10T12:42:54.613Z,15.93
2018-11-10T12:45:26.553Z,14.33
2018-11-10T12:47:58.680Z,14.75
2018-11-10T12:50:30.874Z,14.47
2018-11-10T12:53:02.867Z,16.00
2018-11-10T12:55:34.005Z,13.83
2018-11-10T12:58:06.281Z,15.10
2018-11-10T13:00:38.024Z,14.85
2018-11-10T13:03:10.624Z,15.18
2018-11-10T13:05:42.224Z,11.85
2018-11-10T13:08:15.595Z,16.07
2018-11-10T13:10:47.440Z,15.05
2018-11-10T13:13:19.237Z,14.55
2018-11-10T13:15:50.664Z,17.25
2018-11-10T13:18:23.306Z,13.62
2018-11-10T13:20:54.843Z,14.47
2018-11-10T13:23:26.463Z,15.45
2018-11-10T13:25:58.870Z,15.45
2018-11-10T13:28:30.145Z,15.58
2018-11-10T13:31:02.675Z,15.83
2018-11-10T13:33:35.423Z,15.05
2018-11-10T13:36:07.025Z,14.95
2018-11-10T13:38:39.225Z,14.55
2018-11-10T13:41:11.623Z,16.70
2018-11-10T13:43:43.545Z,15.18
2018-11-10T13:46:16.307Z,16.02
2018-11-10T13:48:48.106Z,16.10
2018-11-10T13:51:20.741Z,16.32
2018-11-10T13:53:53.466Z,15.15
2018-11-10T13:56:26.304Z,14.95
2018-11-10T13:58:58.705Z,16.42
2018-11-10T14:01:31.144Z,15.10
2018-11-10T14:04:02.404Z,14.60
2018-11-10T14:06:34.723Z,19.75
2018-11-10T14:09:06.765Z,14.90
2018-11-10T14:11:38.944Z,16.85
2018-11-10T14:14:11.263Z,16.50
2018-11-10T14:16:43.906Z,15.23
2018-11-10T14:19:15.743Z,14.85
2018-11-10T14:21:47.828Z,16.15
2018-11-10T14:24:19.883Z,17.02
2018-11-10T14:26:52.011Z,14.70
2018-11-10T14:29:23.264Z,15.25
2018-11-10T14:31:55.485Z,15.78
2018-11-10T14:34:27.130Z,14.80
2018-11-10T14:37:00.963Z,22.75
2018-11-10T14:39:33.744Z,15.27
2018-11-10T14:42:05.843Z,15.68
2018-11-10T14:44:38.604Z,16.42
2018-11-10T14:47:10.125Z,16.10
2018-11-10T14:49:42.323Z,15.60
2018-11-10T14:52:13.963Z,17.65
2018-11-10T14:54:45.965Z,16.25
2018-11-10T14:57:17.805Z,14.68
2018-11-10T14:59:50.083Z,14.18
2018-11-10T15:02:22.424Z,16.48
2018-11-10T15:04:54.203Z,15.75
2018-11-10T15:07:26.184Z,17.17
2018-11-10T15:09:58.363Z,16.20
2018-11-10T15:12:31.704Z,16.77
2018-11-10T15:15:04.664Z,15.65
2018-11-10T15:17:36.871Z,16.00
2018-11-10T15:20:11.363Z,17.30
2018-11-10T15:22:43.523Z,18.17
2018-11-10T15:25:18.264Z,18.30
2018-11-10T15:27:50.130Z,15.50
2018-11-10T15:30:22.723Z,14.43
2018-11-10T15:32:55.366Z,16.12
2018-11-10T15:35:27.604Z,15.83
2018-11-10T15:37:59.524Z,21.95
2018-11-10T15:40:31.847Z,18.00
2018-11-10T15:43:03.825Z,16.00
2018-11-10T15:45:36.384Z,17.37
2018-11-10T15:48:10.363Z,16.57
2018-11-10T15:50:42.124Z,17.75
2018-11-10T15:53:14.890Z,18.92
2018-11-10T15:55:46.523Z,17.30
2018-11-10T15:58:19.063Z,17.57
2018-11-10T16:00:50.763Z,17.23
2018-11-10T16:03:24.123Z,16.82
2018-11-10T16:05:56.063Z,19.42
2018-11-10T16:08:28.383Z,21.55
2018-11-10T16:11:00.304Z,21.40
2018-11-10T16:13:32.003Z,18.65
2018-11-10T16:16:03.544Z,21.42
2018-11-10T16:18:34.843Z,22.10
2018-11-10T16:21:07.604Z,20.75
2018-11-10T16:23:40.363Z,20.97
2018-11-10T16:26:12.483Z,20.65
2018-11-10T16:28:43.824Z,22.67
2018-11-10T16:31:15.804Z,20.85
2018-11-10T16:33:48.324Z,23.80
2018-11-10T16:36:20.603Z,21.62
2018-11-10T16:38:52.404Z,22.67
2018-11-10T16:41:24.663Z,25.80
2018-11-10T16:43:56.204Z,23.38
2018-11-10T16:46:28.824Z,21.70
2018-11-10T16:49:00.786Z,23.67
2018-11-10T16:51:33.283Z,23.10
2018-11-10T16:54:05.223Z,22.45
2018-11-10T16:56:36.965Z,21.95
2018-11-10T16:59:09.539Z,22.40
2018-11-10T17:01:42.065Z,22.95
2018-11-10T17:04:14.329Z,21.95
2018-11-10T17:06:46.803Z,21.05
2018-11-10T17:09:19.503Z,22.32
2018-11-10T17:11:52.226Z,25.43
2018-11-10T17:14:24.606Z,23.73
2018-11-10T17:16:56.783Z,22.32
2018-11-10T17:19:29.243Z,22.25
2018-11-10T17:22:02.659Z,22.02
2018-11-10T17:24:34.943Z,23.00
2018-11-10T17:27:07.234Z,24.10
2018-11-10T17:29:39.004Z,24.32
2018-11-10T17:32:11.044Z,22.07
2018-11-10T17:34:43.905Z,44.53
2018-11-10T17:37:16.725Z,23.47
2018-11-10T17:39:48.786Z,25.65
2018-11-10T17:42:21.383Z,23.42
2018-11-10T17:44:52.903Z,23.00
2018-11-10T17:47:25.588Z,23.12
2018-11-10T17:49:57.884Z,23.42
2018-11-10T17:52:29.006Z,24.77
2018-11-10T17:55:01.472Z,23.75
2018-11-10T17:57:34.289Z,23.50
2018-11-10T18:00:05.924Z,24.92
2018-11-10T18:02:37.365Z,23.70
2018-11-10T18:05:11.204Z,23.57
2018-11-10T18:07:43.384Z,21.48
2018-11-10T18:10:16.883Z,19.67
2018-11-10T18:12:49.194Z,20.25
2018-11-10T18:15:21.023Z,21.12
2018-11-10T18:17:53.763Z,26.00
2018-11-10T18:20:25.124Z,20.95
2018-11-10T18:22:57.203Z,21.40
2018-11-10T18:25:29.165Z,25.85
2018-11-10T18:28:01.083Z,23.87
2018-11-10T18:30:33.303Z,22.22
2018-11-10T18:33:06.004Z,22.95
2018-11-10T18:35:38.224Z,18.50
2018-11-10T18:38:10.384Z,19.35
2018-11-10T18:40:43.165Z,19.73
2018-11-10T18:43:14.725Z,20.00
2018-11-10T18:45:46.306Z,20.77
2018-11-10T18:48:19.024Z,18.25
2018-11-10T18:50:51.345Z,20.30
2018-11-10T18:53:24.604Z,19.87
2018-11-10T18:55:56.005Z,21.20
2018-11-10T18:58:27.947Z,21.00
2018-11-10T19:00:59.325Z,21.40
2018-11-10T19:03:31.685Z,21.90
2018-11-10T19:06:03.657Z,20.60
2018-11-10T19:08:35.945Z,21.25
2018-11-10T19:11:07.504Z,21.55
2018-11-10T19:13:39.284Z,20.72
2018-11-10T19:16:10.927Z,21.65
2018-11-10T19:18:43.684Z,25.30
2018-11-10T19:21:15.394Z,24.95
2018-11-10T19:23:48.145Z,22.32
2018-11-10T19:26:20.124Z,23.83
2018-11-10T19:28:52.645Z,23.75
2018-11-10T19:31:24.764Z,21.10
2018-11-10T19:33:56.987Z,21.85
2018-11-10T19:36:29.496Z,23.05
2018-11-10T19:39:02.645Z,22.17
2018-11-10T19:41:32.684Z,21.93
2018-11-10T19:44:05.084Z,24.40
2018-11-10T19:46:36.987Z,24.63
2018-11-10T19:49:09.484Z,25.88
2018-11-10T19:51:41.595Z,23.90
2018-11-10T19:54:13.627Z,23.10
2018-11-10T19:56:45.224Z,22.87
2018-11-10T19:59:17.004Z,20.95
2018-11-10T20:01:48.125Z,21.55
2018-11-10T20:04:20.844Z,22.65
2018-11-10T20:06:52.355Z,23.25
2018-11-10T20:09:24.985Z,22.45
2018-11-10T20:11:56.584Z,22.20
2018-11-10T20:14:29.204Z,22.98
2018-11-10T20:17:01.766Z,23.52
2018-11-10T20:19:33.278Z,23.62
2018-11-10T20:22:05.158Z,22.77
2018-11-10T20:24:37.018Z,24.82
2018-11-10T20:27:09.501Z,23.10
2018-11-10T20:29:41.780Z,22.60
2018-11-10T20:32:13.918Z,22.27
2018-11-10T20:34:46.679Z,22.62
2018-11-10T20:37:18.577Z,29.25
2018-11-10T20:39:51.019Z,23.65
2018-11-10T20:42:24.200Z,24.15
2018-11-10T20:44:57.099Z,24.05
2018-11-10T20:47:29.018Z,24.50
2018-11-10T20:50:00.757Z,28.55
2018-11-10T20:52:35.617Z,25.57
2018-11-10T20:55:09.618Z,23.40
2018-11-10T20:57:41.278Z,24.12
2018-11-10T21:00:18.663Z,23.30
2018-11-10T21:02:50.721Z,22.65
2018-11-10T21:05:23.302Z,23.98
2018-11-10T21:07:54.597Z,22.48
2018-11-10T21:10:27.178Z,23.20
2018-11-10T21:12:59.230Z,26.33
2018-11-10T21:15:31.863Z,24.82
2018-11-10T21:18:03.618Z,23.83
2018-11-10T21:20:35.838Z,25.92
2018-11-10T21:23:08.219Z,26.73
2018-11-10T21:25:39.458Z,25.40
2018-11-10T21:28:11.318Z,27.50
2018-11-10T21:30:42.898Z,25.82
2018-11-10T21:33:14.398Z,25.37
2018-11-10T21:35:47.818Z,25.95
2018-11-10T21:38:20.638Z,27.17
2018-11-10T21:40:53.158Z,25.92
2018-11-10T21:43:26.825Z,27.20
2018-11-10T21:45:58.980Z,25.25
2018-11-10T21:48:31.460Z,25.60
2018-11-10T21:51:02.877Z,24.67
2018-11-10T21:53:35.377Z,24.10
2018-11-10T21:56:07.078Z,27.25
2018-11-10T21:58:38.837Z,25.72
2018-11-10T22:01:09.478Z,44.20
2018-11-10T22:03:43.138Z,26.65
2018-11-10T22:06:15.417Z,25.10
2018-11-10T22:08:47.428Z,24.40
2018-11-10T22:11:20.378Z,23.18
2018-11-10T22:13:52.562Z,22.35
2018-11-10T22:16:24.480Z,22.32
2018-11-10T22:18:56.638Z,23.67
2018-11-10T22:21:28.598Z,23.50
2018-11-10T22:24:01.578Z,26.23
2018-11-10T22:26:33.418Z,24.30
2018-11-10T22:29:05.818Z,23.27
2018-11-10T22:31:38.058Z,22.55
2018-11-10T22:34:10.098Z,23.27
2018-11-10T22:36:41.918Z,24.57
2018-11-10T22:39:13.918Z,26.70
2018-11-10T22:41:45.797Z,28.85
2018-11-10T22:44:17.639Z,27.95
2018-11-10T22:46:49.644Z,25.48
2018-11-10T22:49:21.679Z,25.37
2018-11-10T22:51:53.119Z,24.15
2018-11-10T22:54:25.878Z,25.23
2018-11-10T22:56:57.177Z,25.88
2018-11-10T22:59:28.479Z,26.50
2018-11-10T23:02:00.479Z,28.32
2018-11-10T23:04:32.817Z,26.62
2018-11-10T23:07:04.977Z,25.75
2018-11-10T23:09:36.481Z,25.77
2018-11-10T23:12:08.778Z,25.08
2018-11-10T23:14:40.598Z,25.65
2018-11-10T23:17:12.504Z,26.17
2018-11-10T23:19:45.119Z,26.42
2018-11-10T23:22:17.559Z,27.07
2018-11-10T23:24:49.498Z,25.72
2018-11-10T23:27:21.238Z,26.05
2018-11-10T23:29:53.339Z,27.22
2018-11-10T23:32:24.898Z,26.02
2018-11-10T23:34:57.438Z,25.40
2018-11-10T23:37:29.038Z,26.10
2018-11-10T23:40:02.598Z,26.33
2018-11-10T23:42:33.898Z,26.37
2018-11-10T23:45:06.400Z,26.97
2018-11-10T23:47:38.858Z,27.25
2018-11-10T23:50:12.921Z,27.02
2018-11-10T23:52:44.517Z,26.93
2018-11-10T23:55:17.858Z,26.33
2018-11-10T23:57:50.298Z,26.10
